createdAt,value
2022-12-04T00:01:32.086Z,39.83
2022-12-04T00:04:00.462Z,43.60
2022-12-04T00:06:27.283Z,41.72
2022-12-04T00:08:53.946Z,46.47
2022-12-04T00:11:22.104Z,42.13
2022-12-04T00:13:48.991Z,44.60
2022-12-04T00:16:17.030Z,44.60
2022-12-04T00:18:43.422Z,41.70
2022-12-04T00:21:10.681Z,39.13
2022-12-04T00:23:37.524Z,43.42
2022-12-04T00:26:05.217Z,42.70
2022-12-04T00:28:31.546Z,38.42
2022-12-04T00:30:57.842Z,42.28
2022-12-04T00:33:24.219Z,40.85
2022-12-04T00:35:56.661Z,42.35
2022-12-04T00:38:22.951Z,40.47
2022-12-04T00:40:50.079Z,43.97
2022-12-04T00:43:16.682Z,40.22
2022-12-04T00:45:43.129Z,44.83
2022-12-04T00:48:09.767Z,43.17
2022-12-04T00:50:36.320Z,45.47
2022-12-04T00:53:02.631Z,43.22
2022-12-04T00:55:28.947Z,40.55
2022-12-04T00:57:59.735Z,33.90
2022-12-04T01:00:26.380Z,41.50
2022-12-04T01:02:52.791Z,41.97
2022-12-04T01:05:19.191Z,42.35
2022-12-04T01:07:45.534Z,35.22
2022-12-04T01:10:12.335Z,40.80
2022-12-04T01:12:38.649Z,40.75
2022-12-04T01:15:05.290Z,42.75
2022-12-04T01:17:31.634Z,44.85
2022-12-04T01:19:58.134Z,43.55
2022-12-04T01:22:24.627Z,46.17
2022-12-04T01:24:50.964Z,37.25
2022-12-04T01:27:17.243Z,43.90
2022-12-04T01:29:43.534Z,40.92
2022-12-04T01:32:09.990Z,41.60
2022-12-04T01:34:36.344Z,47.60
2022-12-04T01:37:02.632Z,43.60
2022-12-04T01:39:28.926Z,45.50
2022-12-04T01:41:55.241Z,44.63
2022-12-04T01:44:23.323Z,43.85
2022-12-04T01:46:53.965Z,48.70
2022-12-04T01:49:37.734Z,46.85
2022-12-04T01:52:09.280Z,47.25
2022-12-04T01:54:39.426Z,44.88
2022-12-04T01:57:08.834Z,48.60
2022-12-04T01:59:37.690Z,46.45
2022-12-04T02:02:11.878Z,44.95
2022-12-04T02:04:39.898Z,47.08
2022-12-04T02:07:06.264Z,39.05
2022-12-04T02:09:33.017Z,45.95
2022-12-04T02:12:07.486Z,48.08
2022-12-04T02:14:36.908Z,45.63
2022-12-04T02:17:08.990Z,48.83
2022-12-04T02:19:54.457Z,44.40
2022-12-04T02:22:29.642Z,46.58
2022-12-04T02:25:01.502Z,46.17
2022-12-04T02:27:40.135Z,41.85
2022-12-04T02:30:08.356Z,45.35
2022-12-04T02:32:40.597Z,49.92
2022-12-04T02:35:07.002Z,48.17
2022-12-04T02:37:35.919Z,45.70
2022-12-04T02:40:25.380Z,46.38
2022-12-04T02:43:17.776Z,49.60
2022-12-04T02:45:48.519Z,46.55
2022-12-04T02:48:19.077Z,47.63
2022-12-04T02:50:46.139Z,43.80
2022-12-04T02:53:14.998Z,47.67
2022-12-04T02:55:47.196Z,45.25
2022-12-04T02:58:20.245Z,44.40
2022-12-04T03:00:47.789Z,48.38
2022-12-04T03:03:20.405Z,44.70
2022-12-04T03:05:49.677Z,46.95
2022-12-04T03:08:18.105Z,48.88
2022-12-04T03:10:47.011Z,45.33
2022-12-04T03:13:20.094Z,44.03
2022-12-04T03:15:53.348Z,46.88
2022-12-04T03:18:26.372Z,48.47
2022-12-04T03:20:55.138Z,43.30
2022-12-04T03:23:26.097Z,45.05
2022-12-04T03:26:05.970Z,46.92
2022-12-04T03:28:46.014Z,48.78
2022-12-04T03:31:14.911Z,46.15
2022-12-04T03:33:42.727Z,47.67
2022-12-04T03:36:19.575Z,48.17
2022-12-04T03:38:56.498Z,45.17
2022-12-04T03:41:38.069Z,45.47
2022-12-04T03:44:08.464Z,44.50
2022-12-04T03:47:04.511Z,52.03
2022-12-04T03:49:37.183Z,48.10
2022-12-04T03:52:16.887Z,46.33
2022-12-04T03:54:48.982Z,48.70
2022-12-04T03:57:20.327Z,46.70
2022-12-04T03:59:55.482Z,45.35
2022-12-04T04:02:24.690Z,46.22
2022-12-04T04:04:52.971Z,49.28
2022-12-04T04:07:35.144Z,47.33
2022-12-04T04:10:05.639Z,42.80
2022-12-04T04:12:35.451Z,44.25
2022-12-04T04:15:23.316Z,53.03
2022-12-04T04:18:08.628Z,52.67
2022-12-04T04:21:04.622Z,50.83
2022-12-04T04:23:51.486Z,48.25
2022-12-04T04:26:18.217Z,50.38
2022-12-04T04:28:44.515Z,46.97
2022-12-04T04:31:24.842Z,47.00
2022-12-04T04:34:10.019Z,46.40
2022-12-04T04:36:45.345Z,52.05
2022-12-04T04:39:23.577Z,49.33
2022-12-04T04:41:59.307Z,44.78
2022-12-04T04:44:28.410Z,44.60
2022-12-04T04:46:58.309Z,43.97
2022-12-04T04:49:28.151Z,47.17
2022-12-04T04:51:55.161Z,46.30
2022-12-04T04:54:21.870Z,48.10
2022-12-04T04:56:48.236Z,48.25
2022-12-04T04:59:14.695Z,48.10
2022-12-04T05:01:42.629Z,46.53
2022-12-04T05:04:09.203Z,53.55
2022-12-04T05:06:35.513Z,46.03
2022-12-04T05:09:02.987Z,42.50
2022-12-04T05:11:29.366Z,49.22
2022-12-04T05:13:55.740Z,44.58
2022-12-04T05:16:22.165Z,46.22
2022-12-04T05:19:07.329Z,44.15
2022-12-04T05:21:33.807Z,49.15
2022-12-04T05:24:00.135Z,47.90
2022-12-04T05:26:26.487Z,46.10
2022-12-04T05:28:52.787Z,44.13
2022-12-04T05:31:19.196Z,50.95
2022-12-04T05:33:45.519Z,47.42
2022-12-04T05:36:13.182Z,43.88
2022-12-04T05:38:39.523Z,47.17
2022-12-04T05:41:06.279Z,42.50
2022-12-04T05:43:33.014Z,43.22
2022-12-04T05:46:03.206Z,46.13
2022-12-04T05:48:29.589Z,49.10
2022-12-04T05:50:55.957Z,43.42
2022-12-04T05:53:22.297Z,46.35
2022-12-04T05:55:58.640Z,49.75
2022-12-04T05:58:25.193Z,45.20
2022-12-04T06:00:51.651Z,44.58
2022-12-04T06:03:18.089Z,47.63
2022-12-04T06:05:44.516Z,53.60
2022-12-04T06:08:10.831Z,47.20
2022-12-04T06:10:37.260Z,44.72
2022-12-04T06:13:04.997Z,51.85
2022-12-04T06:15:31.393Z,46.67
2022-12-04T06:17:57.691Z,50.03
2022-12-04T06:20:24.080Z,44.85
2022-12-04T06:22:50.569Z,45.60
2022-12-04T06:25:17.001Z,45.90
2022-12-04T06:27:44.289Z,49.58
2022-12-04T06:30:10.793Z,48.25
2022-12-04T06:32:37.097Z,45.72
2022-12-04T06:35:04.208Z,45.97
2022-12-04T06:37:30.527Z,45.20
2022-12-04T06:39:59.791Z,45.58
2022-12-04T06:42:26.139Z,43.95
2022-12-04T06:44:52.569Z,48.10
2022-12-04T06:47:18.948Z,47.83
2022-12-04T06:49:48.696Z,45.75
2022-12-04T06:52:15.022Z,52.47
2022-12-04T06:54:41.357Z,52.00
2022-12-04T06:57:07.642Z,46.83
2022-12-04T06:59:33.998Z,47.88
2022-12-04T07:02:00.399Z,44.05
2022-12-04T07:04:26.806Z,50.22
2022-12-04T07:06:53.192Z,48.58
2022-12-04T07:09:19.557Z,49.03
2022-12-04T07:11:45.867Z,47.60
2022-12-04T07:14:13.142Z,51.72
2022-12-04T07:16:41.997Z,45.97
2022-12-04T07:19:13.250Z,52.30
2022-12-04T07:21:39.788Z,51.22
2022-12-04T07:24:06.301Z,49.70
2022-12-04T07:26:32.688Z,46.65
2022-12-04T07:28:59.584Z,48.30
2022-12-04T07:31:26.654Z,45.00
2022-12-04T07:33:53.952Z,48.70
2022-12-04T07:36:20.904Z,47.15
2022-12-04T07:38:47.404Z,48.78
2022-12-04T07:41:14.023Z,45.65
2022-12-04T07:43:40.833Z,46.90
2022-12-04T07:46:08.747Z,47.42
2022-12-04T07:48:35.058Z,47.47
2022-12-04T07:51:08.604Z,42.83
2022-12-04T07:53:35.511Z,49.00
2022-12-04T07:56:02.728Z,44.55
2022-12-04T07:58:29.160Z,43.03
2022-12-04T08:00:55.505Z,45.60
2022-12-04T08:03:21.942Z,48.60
2022-12-04T08:05:48.352Z,42.63
2022-12-04T08:08:14.731Z,45.63
2022-12-04T08:10:41.053Z,45.58
2022-12-04T08:13:07.852Z,42.30
2022-12-04T08:15:34.785Z,42.90
2022-12-04T08:18:01.085Z,45.97
2022-12-04T08:20:27.415Z,44.00
2022-12-04T08:22:53.744Z,45.80
2022-12-04T08:25:20.038Z,44.83
2022-12-04T08:27:47.930Z,45.35
2022-12-04T08:30:14.406Z,49.25
2022-12-04T08:32:40.842Z,50.45
2022-12-04T08:35:07.455Z,48.03
2022-12-04T08:37:33.756Z,48.88
2022-12-04T08:40:00.127Z,46.88
2022-12-04T08:42:26.402Z,40.80
2022-12-04T08:44:52.695Z,47.28
2022-12-04T08:47:19.020Z,43.20
2022-12-04T08:49:45.316Z,46.58
2022-12-04T08:52:11.637Z,45.33
2022-12-04T08:54:38.025Z,42.55
2022-12-04T08:57:04.413Z,40.38
2022-12-04T08:59:30.768Z,46.28
2022-12-04T09:01:57.167Z,45.50
2022-12-04T09:04:23.597Z,47.72
2022-12-04T09:06:49.959Z,47.95
2022-12-04T09:09:16.596Z,46.92
2022-12-04T09:11:44.889Z,43.50
2022-12-04T09:14:11.242Z,44.85
2022-12-04T09:16:38.129Z,43.03
2022-12-04T09:19:04.548Z,45.72
2022-12-04T09:21:30.905Z,37.92
2022-12-04T09:23:58.760Z,40.83
2022-12-04T09:26:25.322Z,44.20
2022-12-04T09:28:52.147Z,44.33
2022-12-04T09:31:19.005Z,45.03
2022-12-04T09:33:45.341Z,46.28
2022-12-04T09:36:17.852Z,46.05
2022-12-04T09:38:48.738Z,44.80
2022-12-04T09:41:15.072Z,49.20
2022-12-04T09:43:43.934Z,44.53
2022-12-04T09:46:13.024Z,45.25
2022-12-04T09:48:41.173Z,46.65
2022-12-04T09:51:16.427Z,46.30
2022-12-04T09:53:45.753Z,44.22
2022-12-04T09:56:13.889Z,47.35
2022-12-04T09:58:42.579Z,42.08
2022-12-04T10:01:17.554Z,49.97
2022-12-04T10:03:44.111Z,46.70
2022-12-04T10:06:19.296Z,48.72
2022-12-04T10:08:46.859Z,46.70
2022-12-04T10:11:21.154Z,45.95
2022-12-04T10:13:53.584Z,45.60
2022-12-04T10:16:22.741Z,46.72
2022-12-04T10:19:04.479Z,42.53
2022-12-04T10:22:06.212Z,43.78
2022-12-04T10:24:50.954Z,44.72
2022-12-04T10:27:29.107Z,44.83
2022-12-04T10:30:02.229Z,41.58
2022-12-04T10:32:34.820Z,47.65
2022-12-04T10:35:21.591Z,47.45
2022-12-04T10:37:51.680Z,42.45
2022-12-04T10:40:22.881Z,42.75
2022-12-04T10:42:54.623Z,42.05
2022-12-04T10:45:22.637Z,44.63
2022-12-04T10:47:49.627Z,43.90
2022-12-04T10:50:23.421Z,39.25
2022-12-04T10:52:50.226Z,46.60
2022-12-04T10:55:27.436Z,46.28
2022-12-04T10:57:53.789Z,38.90
2022-12-04T11:00:24.377Z,42.28
2022-12-04T11:02:51.689Z,37.88
2022-12-04T11:05:32.321Z,43.38
2022-12-04T11:07:59.789Z,41.10
2022-12-04T11:10:26.208Z,39.60
2022-12-04T11:12:55.693Z,39.55
2022-12-04T11:15:22.081Z,40.17
2022-12-04T11:17:48.514Z,43.05
2022-12-04T11:20:21.030Z,40.72
2022-12-04T11:22:57.563Z,32.97
2022-12-04T11:25:26.381Z,32.97
2022-12-04T11:27:54.536Z,36.63
2022-12-04T11:30:24.898Z,34.60
2022-12-04T11:32:52.108Z,32.47
2022-12-04T11:35:22.034Z,33.67
2022-12-04T11:37:53.884Z,35.45
2022-12-04T11:40:20.877Z,32.00
2022-12-04T11:43:07.519Z,33.35
2022-12-04T11:45:33.925Z,33.78
2022-12-04T11:48:02.119Z,33.00
2022-12-04T11:50:37.615Z,30.10
2022-12-04T11:53:24.190Z,33.38
2022-12-04T11:55:59.737Z,32.17
2022-12-04T11:58:45.023Z,29.40
2022-12-04T12:01:14.344Z,32.25
2022-12-04T12:03:52.734Z,32.17
2022-12-04T12:06:34.447Z,34.13
2022-12-04T12:09:20.143Z,31.33
2022-12-04T12:11:46.457Z,29.83
2022-12-04T12:14:14.353Z,32.30
2022-12-04T12:19:29.482Z,28.35
2022-12-04T12:21:55.747Z,31.55
2022-12-04T12:24:35.867Z,34.95
2022-12-04T12:27:08.539Z,30.83
2022-12-04T12:29:42.713Z,29.02
2022-12-04T12:32:15.100Z,30.60
2022-12-04T12:34:43.151Z,31.63
2022-12-04T12:37:16.094Z,29.27
2022-12-04T12:39:48.678Z,29.58
2022-12-04T12:42:18.677Z,31.05
2022-12-04T12:45:04.087Z,30.17
2022-12-04T12:47:34.421Z,29.50
2022-12-04T12:50:04.587Z,30.25
2022-12-04T12:52:41.529Z,28.92
2022-12-04T12:55:23.907Z,26.10
2022-12-04T12:58:13.734Z,31.65
2022-12-04T13:01:06.247Z,28.85
2022-12-04T13:03:35.471Z,29.67
2022-12-04T13:06:07.892Z,29.75
2022-12-04T13:08:37.854Z,33.28
2022-12-04T13:11:11.405Z,31.10
2022-12-04T13:13:53.182Z,30.98
2022-12-04T13:16:24.585Z,30.23
2022-12-04T13:19:07.584Z,26.98
2022-12-04T13:21:36.042Z,27.00
2022-12-04T13:24:25.428Z,25.27
2022-12-04T13:26:58.323Z,26.92
2022-12-04T13:29:37.249Z,25.80
2022-12-04T13:32:23.923Z,26.75
2022-12-04T13:35:22.467Z,26.73
2022-12-04T13:38:14.176Z,28.00
2022-12-04T13:40:44.991Z,28.60
2022-12-04T13:43:23.913Z,26.60
2022-12-04T13:45:51.798Z,25.00
2022-12-04T13:48:36.885Z,27.42
2022-12-04T13:51:22.135Z,22.27
2022-12-04T13:53:48.890Z,21.95
2022-12-04T13:56:25.127Z,24.35
2022-12-04T13:59:19.910Z,21.90
2022-12-04T14:01:48.606Z,21.00
2022-12-04T14:04:33.606Z,20.30
2022-12-04T14:07:00.609Z,21.13
2022-12-04T14:09:34.108Z,20.00
2022-12-04T14:12:02.008Z,20.63
2022-12-04T14:14:36.212Z,20.10
2022-12-04T14:17:03.889Z,18.33
2022-12-04T14:19:33.606Z,18.30
2022-12-04T14:22:00.230Z,17.25
2022-12-04T14:24:37.757Z,18.65
2022-12-04T14:27:22.719Z,18.80
2022-12-04T14:29:54.681Z,18.95
2022-12-04T14:32:29.359Z,18.10
2022-12-04T14:34:56.741Z,17.90
2022-12-04T14:37:27.289Z,17.10
2022-12-04T14:39:53.766Z,19.40
2022-12-04T14:42:25.440Z,17.08
2022-12-04T14:44:53.540Z,16.23
2022-12-04T14:47:40.950Z,19.52
2022-12-04T14:50:15.022Z,17.10
2022-12-04T14:52:46.354Z,17.45
2022-12-04T14:55:19.015Z,15.35
2022-12-04T14:57:52.046Z,17.20
2022-12-04T15:00:22.683Z,18.17
2022-12-04T15:02:50.033Z,15.02
2022-12-04T15:05:22.146Z,19.13
2022-12-04T15:07:49.988Z,15.80
2022-12-04T15:10:38.030Z,15.77
2022-12-04T15:13:04.313Z,18.85
2022-12-04T15:15:30.732Z,15.73
2022-12-04T15:17:57.967Z,16.60
2022-12-04T15:20:24.826Z,18.02
2022-12-04T15:22:51.235Z,16.95
2022-12-04T15:25:28.758Z,18.55
2022-12-04T15:28:01.202Z,17.17
2022-12-04T15:30:28.603Z,19.10
2022-12-04T15:32:54.991Z,18.15
2022-12-04T15:35:29.641Z,20.58
2022-12-04T15:37:56.173Z,15.77
2022-12-04T15:40:24.516Z,17.50
2022-12-04T15:42:51.350Z,19.08
2022-12-04T15:45:20.464Z,15.48
2022-12-04T15:47:46.771Z,18.48
2022-12-04T15:50:15.967Z,19.25
2022-12-04T15:52:50.016Z,15.95
2022-12-04T15:55:21.452Z,15.93
2022-12-04T15:57:52.537Z,21.13
2022-12-04T16:00:39.259Z,16.58
2022-12-04T16:03:07.652Z,19.75
2022-12-04T16:05:37.884Z,20.42
2022-12-04T16:08:24.738Z,17.38
2022-12-04T16:11:02.134Z,21.85
2022-12-04T16:13:30.387Z,23.48
2022-12-04T16:15:58.750Z,24.98
2022-12-04T16:18:25.255Z,27.13
2022-12-04T16:20:51.753Z,26.70
2022-12-04T16:23:18.144Z,24.85
2022-12-04T16:25:44.433Z,28.50
2022-12-04T16:28:10.726Z,29.70
2022-12-04T16:30:37.266Z,29.58
2022-12-04T16:33:03.649Z,28.58
2022-12-04T16:35:31.488Z,26.75
2022-12-04T16:37:57.912Z,30.67
2022-12-04T16:40:24.276Z,26.52
2022-12-04T16:42:50.594Z,27.35
2022-12-04T16:45:31.692Z,28.92
2022-12-04T16:47:58.440Z,31.77
2022-12-04T16:50:25.570Z,29.00
2022-12-04T16:52:52.205Z,28.20
2022-12-04T16:55:26.396Z,30.00
2022-12-04T16:57:52.715Z,31.10
2022-12-04T17:00:19.492Z,30.33
2022-12-04T17:02:46.289Z,28.92
2022-12-04T17:05:18.839Z,30.08
2022-12-04T17:07:45.273Z,34.10
2022-12-04T17:10:13.292Z,35.25
2022-12-04T17:12:40.154Z,31.10
2022-12-04T17:15:07.144Z,31.55
2022-12-04T17:17:33.610Z,33.97
2022-12-04T17:19:59.963Z,30.55
2022-12-04T17:22:26.589Z,34.42
2022-12-04T17:24:56.076Z,31.70
2022-12-04T17:27:22.832Z,33.10
2022-12-04T17:29:49.213Z,34.60
2022-12-04T17:32:15.873Z,29.63
2022-12-04T17:34:42.175Z,29.05
2022-12-04T17:37:08.465Z,30.05
2022-12-04T17:39:34.991Z,32.58
2022-12-04T17:42:01.375Z,30.42
2022-12-04T17:44:27.718Z,33.95
2022-12-04T17:46:54.669Z,33.58
2022-12-04T17:49:21.078Z,31.83
2022-12-04T17:51:47.366Z,31.65
2022-12-04T17:54:13.732Z,29.83
2022-12-04T17:56:44.564Z,36.75
2022-12-04T17:59:14.039Z,29.98
2022-12-04T18:01:40.430Z,33.60
2022-12-04T18:04:07.922Z,32.03
2022-12-04T18:06:38.336Z,32.53
2022-12-04T18:09:05.883Z,30.85
2022-12-04T18:11:33.340Z,31.05
2022-12-04T18:14:00.600Z,35.13
2022-12-04T18:16:27.527Z,34.67
2022-12-04T18:18:54.431Z,31.33
2022-12-04T18:21:20.803Z,32.22
2022-12-04T18:23:47.325Z,29.88
2022-12-04T18:26:15.086Z,29.77
2022-12-04T18:28:41.951Z,33.22
2022-12-04T18:31:08.643Z,33.60
2022-12-04T18:33:37.234Z,32.22
2022-12-04T18:36:04.559Z,30.30
2022-12-04T18:38:31.997Z,28.50
2022-12-04T18:41:02.014Z,28.85
2022-12-04T18:43:28.576Z,30.50
2022-12-04T18:46:02.736Z,28.15
2022-12-04T18:48:33.725Z,26.88
2022-12-04T18:51:00.379Z,27.70
2022-12-04T18:53:27.010Z,28.52
2022-12-04T18:55:53.893Z,31.10
2022-12-04T18:58:21.536Z,30.20
2022-12-04T19:00:48.382Z,32.30
2022-12-04T19:03:14.807Z,30.38
2022-12-04T19:05:48.388Z,31.23
2022-12-04T19:08:14.862Z,26.33
2022-12-04T19:10:41.372Z,32.08
2022-12-04T19:13:07.729Z,27.30
2022-12-04T19:15:34.186Z,26.35
2022-12-04T19:18:00.489Z,25.77
2022-12-04T19:20:26.786Z,26.02
2022-12-04T19:22:53.147Z,26.40
2022-12-04T19:25:19.450Z,26.27
2022-12-04T19:27:46.137Z,28.35
2022-12-04T19:30:13.055Z,25.90
2022-12-04T19:32:39.370Z,25.88
2022-12-04T19:35:05.820Z,25.48
2022-12-04T19:37:32.122Z,25.83
2022-12-04T19:39:58.773Z,29.20
2022-12-04T19:42:25.238Z,25.85
2022-12-04T19:44:51.525Z,24.55
2022-12-04T19:47:18.459Z,26.70
2022-12-04T19:49:44.845Z,27.42
2022-12-04T19:52:11.816Z,26.15
2022-12-04T19:54:38.169Z,25.95
2022-12-04T19:57:04.534Z,21.98
2022-12-04T19:59:36.457Z,24.33
2022-12-04T20:02:04.212Z,25.48
2022-12-04T20:04:30.596Z,25.95
2022-12-04T20:06:56.950Z,23.30
2022-12-04T20:09:25.096Z,25.17
2022-12-04T20:11:51.553Z,25.75
2022-12-04T20:14:17.871Z,23.27
2022-12-04T20:16:44.872Z,24.35
2022-12-04T20:19:13.122Z,25.45
2022-12-04T20:21:39.486Z,27.08
2022-12-04T20:24:06.835Z,26.30
2022-12-04T20:26:35.759Z,23.65
2022-12-04T20:29:02.314Z,25.55
2022-12-04T20:31:32.946Z,26.38
2022-12-04T20:34:00.290Z,24.95
2022-12-04T20:36:27.902Z,27.88
2022-12-04T20:39:01.057Z,23.80
2022-12-04T20:41:28.241Z,30.88
2022-12-04T20:43:55.061Z,27.45
2022-12-04T20:46:25.762Z,29.40
2022-12-04T20:48:53.492Z,26.65
2022-12-04T20:51:24.335Z,29.55
2022-12-04T20:53:51.344Z,26.80
2022-12-04T20:56:18.732Z,32.70
2022-12-04T20:58:45.499Z,28.52
2022-12-04T21:01:14.527Z,30.40
2022-12-04T21:03:41.439Z,29.65
2022-12-04T21:06:22.674Z,32.67
2022-12-04T21:08:52.957Z,34.13
2022-12-04T21:11:20.251Z,30.42
2022-12-04T21:14:04.983Z,31.02
2022-12-04T21:16:31.545Z,35.30
2022-12-04T21:18:57.915Z,31.55
2022-12-04T21:21:26.005Z,30.85
2022-12-04T21:23:52.611Z,31.00
2022-12-04T21:26:19.052Z,29.50
2022-12-04T21:28:45.360Z,34.15
2022-12-04T21:31:11.741Z,34.90
2022-12-04T21:33:38.115Z,32.00
2022-12-04T21:36:06.065Z,30.60
2022-12-04T21:38:34.483Z,35.35
2022-12-04T21:41:02.227Z,32.95
2022-12-04T21:43:29.465Z,34.35
2022-12-04T21:45:56.707Z,32.85
2022-12-04T21:48:23.194Z,35.90
2022-12-04T21:50:49.523Z,35.22
2022-12-04T21:53:15.851Z,31.85
2022-12-04T21:55:48.895Z,31.83
2022-12-04T21:58:15.578Z,31.50
2022-12-04T22:00:42.087Z,31.98
2022-12-04T22:03:08.555Z,30.27
2022-12-04T22:05:35.144Z,33.70
2022-12-04T22:08:01.632Z,34.17
2022-12-04T22:10:28.209Z,32.40
2022-12-04T22:12:54.535Z,29.95
2022-12-04T22:15:21.027Z,32.20
2022-12-04T22:17:47.334Z,29.65
2022-12-04T22:20:13.662Z,30.83
2022-12-04T22:22:39.975Z,31.58
2022-12-04T22:25:06.369Z,31.65
2022-12-04T22:27:32.666Z,28.92
2022-12-04T22:29:59.286Z,35.10
2022-12-04T22:32:25.613Z,33.13
2022-12-04T22:34:52.182Z,33.92
2022-12-04T22:37:18.490Z,33.90
2022-12-04T22:39:44.829Z,37.15
2022-12-04T22:42:11.146Z,34.38
2022-12-04T22:44:37.470Z,33.28
2022-12-04T22:47:03.916Z,35.97
2022-12-04T22:49:30.289Z,28.90
2022-12-04T22:51:56.692Z,34.03
2022-12-04T22:54:22.986Z,31.45
2022-12-04T22:56:49.272Z,28.80
2022-12-04T22:59:15.580Z,31.92
2022-12-04T23:01:41.906Z,31.35
2022-12-04T23:04:08.242Z,30.95
2022-12-04T23:06:34.592Z,31.20
2022-12-04T23:09:02.373Z,31.13
2022-12-04T23:11:28.806Z,29.10
2022-12-04T23:14:02.132Z,31.20
2022-12-04T23:16:29.555Z,30.88
2022-12-04T23:18:56.138Z,33.97
2022-12-04T23:21:22.958Z,27.88
2022-12-04T23:23:49.668Z,34.97
2022-12-04T23:26:17.320Z,31.60
2022-12-04T23:28:44.084Z,31.58
2022-12-04T23:31:11.234Z,25.65
2022-12-04T23:33:38.775Z,26.17
2022-12-04T23:36:05.660Z,29.77
2022-12-04T23:38:32.060Z,26.48
2022-12-04T23:41:01.809Z,27.13
2022-12-04T23:43:28.320Z,26.92
2022-12-04T23:45:54.625Z,29.45
2022-12-04T23:48:20.941Z,32.20
2022-12-04T23:50:47.261Z,27.92
2022-12-04T23:53:13.618Z,28.25
2022-12-04T23:55:39.929Z,29.73
2022-12-04T23:58:06.363Z,27.25
